sensor_id;sensor_type;location;lat;lon;timestamp;pressure;altitude;pressure_sealevel;temperature;humidity
24280;BME280;12395;42.808;23.408;2023-01-24T00:02:24;95904.38;;;4.01;100.00
24280;BME280;12395;42.808;23.408;2023-01-24T00:04:50;95907.00;;;4.01;100.00
24280;BME280;12395;42.808;23.408;2023-01-24T00:07:15;95904.09;;;4.04;100.00
24280;BME280;12395;42.808;23.408;2023-01-24T00:09:41;95906.41;;;4.07;100.00
24280;BME280;12395;42.808;23.408;2023-01-24T00:12:06;95887.44;;;3.86;100.00
24280;BME280;12395;42.808;23.408;2023-01-24T00:14:32;95923.00;;;3.98;100.00
24280;BME280;12395;42.808;23.408;2023-01-24T00:16:57;95915.56;;;3.93;100.00
24280;BME280;12395;42.808;23.408;2023-01-24T00:19:22;95915.31;;;3.87;100.00
24280;BME280;12395;42.808;23.408;2023-01-24T00:21:48;95925.50;;;3.90;100.00
24280;BME280;12395;42.808;23.408;2023-01-24T00:24:13;95915.03;;;3.90;100.00
24280;BME280;12395;42.808;23.408;2023-01-24T00:26:39;95901.97;;;3.80;100.00
24280;BME280;12395;42.808;23.408;2023-01-24T00:29:04;95925.34;;;3.91;100.00
24280;BME280;12395;42.808;23.408;2023-01-24T00:31:30;95924.41;;;3.92;100.00
24280;BME280;12395;42.808;23.408;2023-01-24T00:33:55;95916.81;;;3.89;100.00
24280;BME280;12395;42.808;23.408;2023-01-24T00:36:21;95918.31;;;3.92;100.00
24280;BME280;12395;42.808;23.408;2023-01-24T00:38:46;95929.22;;;3.97;100.00
24280;BME280;12395;42.808;23.408;2023-01-24T00:41:11;95929.38;;;3.96;100.00
24280;BME280;12395;42.808;23.408;2023-01-24T00:43:37;95928.84;;;3.82;100.00
24280;BME280;12395;42.808;23.408;2023-01-24T00:46:07;95930.22;;;3.86;100.00
24280;BME280;12395;42.808;23.408;2023-01-24T00:48:34;95936.28;;;3.87;100.00
24280;BME280;12395;42.808;23.408;2023-01-24T00:51:00;95917.53;;;3.82;100.00
24280;BME280;12395;42.808;23.408;2023-01-24T00:53:25;95921.66;;;3.84;100.00
24280;BME280;12395;42.808;23.408;2023-01-24T00:55:51;95926.34;;;3.81;100.00
24280;BME280;12395;42.808;23.408;2023-01-24T00:58:17;95925.81;;;3.68;100.00
24280;BME280;12395;42.808;23.408;2023-01-24T01:00:43;95923.50;;;3.65;100.00
24280;BME280;12395;42.808;23.408;2023-01-24T01:03:14;95933.56;;;3.69;100.00
24280;BME280;12395;42.808;23.408;2023-01-24T01:05:40;95917.16;;;3.58;100.00
24280;BME280;12395;42.808;23.408;2023-01-24T01:08:06;95929.88;;;3.53;100.00
24280;BME280;12395;42.808;23.408;2023-01-24T01:10:31;95913.72;;;3.48;100.00
24280;BME280;12395;42.808;23.408;2023-01-24T01:12:57;95912.63;;;3.41;100.00
24280;BME280;12395;42.808;23.408;2023-01-24T01:15:22;95928.47;;;3.49;100.00
24280;BME280;12395;42.808;23.408;2023-01-24T01:17:48;95921.72;;;3.46;100.00
24280;BME280;12395;42.808;23.408;2023-01-24T01:20:13;95926.69;;;3.40;100.00
24280;BME280;12395;42.808;23.408;2023-01-24T01:22:39;95926.00;;;3.38;100.00
24280;BME280;12395;42.808;23.408;2023-01-24T01:25:04;95921.72;;;3.37;100.00
24280;BME280;12395;42.808;23.408;2023-01-24T01:27:30;95933.19;;;3.36;100.00
24280;BME280;12395;42.808;23.408;2023-01-24T01:29:55;95919.25;;;3.26;100.00
24280;BME280;12395;42.808;23.408;2023-01-24T01:32:21;95915.66;;;3.27;100.00
24280;BME280;12395;42.808;23.408;2023-01-24T01:34:46;95929.44;;;3.29;100.00
24280;BME280;12395;42.808;23.408;2023-01-24T01:37:11;95923.25;;;3.20;100.00
24280;BME280;12395;42.808;23.408;2023-01-24T01:39:37;95923.09;;;3.22;100.00
24280;BME280;12395;42.808;23.408;2023-01-24T01:42:02;95925.31;;;3.26;100.00
24280;BME280;12395;42.808;23.408;2023-01-24T01:44:30;95933.72;;;3.30;100.00
24280;BME280;12395;42.808;23.408;2023-01-24T01:47:45;95929.03;;;3.33;100.00
24280;BME280;12395;42.808;23.408;2023-01-24T01:50:26;95930.81;;;3.33;100.00
24280;BME280;12395;42.808;23.408;2023-01-24T01:52:56;95926.44;;;3.33;100.00
24280;BME280;12395;42.808;23.408;2023-01-24T01:55:25;95925.31;;;3.36;100.00
24280;BME280;12395;42.808;23.408;2023-01-24T01:57:54;95921.75;;;3.27;100.00
24280;BME280;12395;42.808;23.408;2023-01-24T02:00:22;95919.53;;;3.23;100.00
24280;BME280;12395;42.808;23.408;2023-01-24T02:02:52;95906.16;;;3.16;100.00
24280;BME280;12395;42.808;23.408;2023-01-24T02:05:21;95911.25;;;3.18;100.00
24280;BME280;12395;42.808;23.408;2023-01-24T02:08:05;95914.56;;;3.20;100.00
24280;BME280;12395;42.808;23.408;2023-01-24T02:10:32;95902.16;;;3.12;100.00
24280;BME280;12395;42.808;23.408;2023-01-24T02:13:17;95901.47;;;3.10;100.00
24280;BME280;12395;42.808;23.408;2023-01-24T02:15:45;95902.97;;;3.12;100.00
24280;BME280;12395;42.808;23.408;2023-01-24T02:18:38;95919.94;;;3.18;100.00
24280;BME280;12395;42.808;23.408;2023-01-24T02:21:07;95913.88;;;3.18;100.00
24280;BME280;12395;42.808;23.408;2023-01-24T02:24:12;95926.97;;;3.18;100.00
24280;BME280;12395;42.808;23.408;2023-01-24T02:26:42;95915.66;;;3.17;100.00
24280;BME280;12395;42.808;23.408;2023-01-24T02:29:10;95921.72;;;3.18;100.00
24280;BME280;12395;42.808;23.408;2023-01-24T02:31:57;95916.50;;;3.18;99.99
24280;BME280;12395;42.808;23.408;2023-01-24T02:37:36;95901.19;;;3.03;100.00
24280;BME280;12395;42.808;23.408;2023-01-24T02:40:06;95912.22;;;3.17;100.00
24280;BME280;12395;42.808;23.408;2023-01-24T02:42:37;95917.72;;;3.23;100.00
24280;BME280;12395;42.808;23.408;2023-01-24T02:45:23;95929.16;;;3.32;99.72
24280;BME280;12395;42.808;23.408;2023-01-24T02:47:51;95924.75;;;3.32;99.18
24280;BME280;12395;42.808;23.408;2023-01-24T02:50:19;95920.91;;;3.27;98.96
24280;BME280;12395;42.808;23.408;2023-01-24T02:52:45;95910.16;;;3.20;99.39
24280;BME280;12395;42.808;23.408;2023-01-24T02:55:30;95911.78;;;3.21;99.60
24280;BME280;12395;42.808;23.408;2023-01-24T02:57:56;95905.34;;;3.16;99.40
24280;BME280;12395;42.808;23.408;2023-01-24T03:00:39;95902.03;;;3.13;99.87
24280;BME280;12395;42.808;23.408;2023-01-24T03:03:06;95912.22;;;3.26;100.00
24280;BME280;12395;42.808;23.408;2023-01-24T03:05:32;95915.66;;;3.27;99.80
24280;BME280;12395;42.808;23.408;2023-01-24T03:08:06;95919.25;;;3.26;99.09
24280;BME280;12395;42.808;23.408;2023-01-24T03:10:32;95915.53;;;3.28;99.64
24280;BME280;12395;42.808;23.408;2023-01-24T03:12:58;95913.72;;;3.19;99.41
24280;BME280;12395;42.808;23.408;2023-01-24T03:15:41;95911.69;;;3.23;99.89
24280;BME280;12395;42.808;23.408;2023-01-24T03:18:25;95907.13;;;3.25;98.99
24280;BME280;12395;42.808;23.408;2023-01-24T03:21:09;95919.25;;;3.26;99.52
24280;BME280;12395;42.808;23.408;2023-01-24T03:23:53;95920.63;;;3.30;99.64
24280;BME280;12395;42.808;23.408;2023-01-24T03:26:37;95912.75;;;3.30;98.99
24280;BME280;12395;42.808;23.408;2023-01-24T03:29:20;95916.06;;;3.32;98.67
24280;BME280;12395;42.808;23.408;2023-01-24T03:32:04;95912.47;;;3.23;98.87
24280;BME280;12395;42.808;23.408;2023-01-24T03:34:48;95906.84;;;3.08;98.70
24280;BME280;12395;42.808;23.408;2023-01-24T03:37:18;95911.50;;;2.95;99.85
24280;BME280;12395;42.808;23.408;2023-01-24T03:40:05;95907.25;;;3.04;100.00
24280;BME280;12395;42.808;23.408;2023-01-24T03:42:33;95904.09;;;3.00;100.00
24280;BME280;12395;42.808;23.408;2023-01-24T03:45:00;95905.19;;;3.07;100.00
24280;BME280;12395;42.808;23.408;2023-01-24T03:47:25;95908.50;;;3.09;99.87
24280;BME280;12395;42.808;23.408;2023-01-24T03:49:51;95903.25;;;3.09;100.00
24280;BME280;12395;42.808;23.408;2023-01-24T03:52:35;95912.91;;;3.19;99.67
24280;BME280;12395;42.808;23.408;2023-01-24T03:55:00;95899.66;;;3.10;99.32
24280;BME280;12395;42.808;23.408;2023-01-24T03:57:28;95895.00;;;3.14;99.19
24280;BME280;12395;42.808;23.408;2023-01-24T03:59:54;95913.47;;;3.22;98.81
24280;BME280;12395;42.808;23.408;2023-01-24T04:02:20;95899.94;;;3.17;98.24
24280;BME280;12395;42.808;23.408;2023-01-24T04:04:46;95912.50;;;3.13;98.33
24280;BME280;12395;42.808;23.408;2023-01-24T04:07:30;95907.66;;;3.09;98.52
24280;BME280;12395;42.808;23.408;2023-01-24T04:09:55;95901.59;;;3.08;98.53
24280;BME280;12395;42.808;23.408;2023-01-24T04:12:23;95908.22;;;3.03;98.28
24280;BME280;12395;42.808;23.408;2023-01-24T04:14:48;95889.47;;;2.98;98.78
24280;BME280;12395;42.808;23.408;2023-01-24T04:17:14;95893.19;;;2.95;98.19
24280;BME280;12395;42.808;23.408;2023-01-24T04:19:39;95895.53;;;2.98;98.02
24280;BME280;12395;42.808;23.408;2023-01-24T04:22:05;95901.59;;;2.99;98.88
24280;BME280;12395;42.808;23.408;2023-01-24T04:24:30;95878.03;;;2.89;98.54
24280;BME280;12395;42.808;23.408;2023-01-24T04:26:56;95883.28;;;2.80;98.12
24280;BME280;12395;42.808;23.408;2023-01-24T04:29:21;95889.59;;;2.77;98.65
24280;BME280;12395;42.808;23.408;2023-01-24T04:31:46;95887.25;;;2.74;98.68
24280;BME280;12395;42.808;23.408;2023-01-24T04:34:12;95889.47;;;2.79;98.71
24280;BME280;12395;42.808;23.408;2023-01-24T04:36:37;95898.16;;;2.79;98.18
24280;BME280;12395;42.808;23.408;2023-01-24T04:39:03;95901.72;;;2.78;98.22
24280;BME280;12395;42.808;23.408;2023-01-24T04:41:28;95895.09;;;2.74;98.59
24280;BME280;12395;42.808;23.408;2023-01-24T04:43:54;95880.91;;;2.67;98.33
24280;BME280;12395;42.808;23.408;2023-01-24T04:46:20;95896.88;;;2.64;98.23
24280;BME280;12395;42.808;23.408;2023-01-24T04:48:45;95891.91;;;2.61;98.67
24280;BME280;12395;42.808;23.408;2023-01-24T04:51:11;95869.03;;;2.54;98.84
24280;BME280;12395;42.808;23.408;2023-01-24T04:53:41;95900.88;;;2.59;98.93
24280;BME280;12395;42.808;23.408;2023-01-24T04:56:07;95894.13;;;2.56;98.68
24280;BME280;12395;42.808;23.408;2023-01-24T04:58:33;95896.84;;;2.55;98.68
24280;BME280;12395;42.808;23.408;2023-01-24T05:00:59;95886.91;;;2.49;98.48
24280;BME280;12395;42.808;23.408;2023-01-24T05:03:25;95896.00;;;2.45;98.13
24280;BME280;12395;42.808;23.408;2023-01-24T05:05:52;95900.69;;;2.51;97.71
24280;BME280;12395;42.808;23.408;2023-01-24T05:08:18;95900.69;;;2.41;97.35
24280;BME280;12395;42.808;23.408;2023-01-24T05:10:43;95903.84;;;2.35;97.54
24280;BME280;12395;42.808;23.408;2023-01-24T05:13:09;95917.59;;;2.37;97.35
24280;BME280;12395;42.808;23.408;2023-01-24T05:15:34;95917.47;;;2.48;97.39
24280;BME280;12395;42.808;23.408;2023-01-24T05:18:00;95915.84;;;2.47;97.43
24280;BME280;12395;42.808;23.408;2023-01-24T05:20:26;95922.97;;;2.45;96.77
24280;BME280;12395;42.808;23.408;2023-01-24T05:22:51;95928.47;;;2.42;97.03
24280;BME280;12395;42.808;23.408;2023-01-24T05:25:17;95933.31;;;2.47;96.91
24280;BME280;12395;42.808;23.408;2023-01-24T05:27:43;95918.28;;;2.39;96.64
24280;BME280;12395;42.808;23.408;2023-01-24T05:30:09;95939.22;;;2.49;96.39
24280;BME280;12395;42.808;23.408;2023-01-24T05:32:35;95926.53;;;2.34;96.56
24280;BME280;12395;42.808;23.408;2023-01-24T05:35:00;95939.31;;;2.38;96.30
24280;BME280;12395;42.808;23.408;2023-01-24T05:37:25;95947.84;;;2.40;96.54
24280;BME280;12395;42.808;23.408;2023-01-24T05:39:51;95948.53;;;2.32;96.28
24280;BME280;12395;42.808;23.408;2023-01-24T05:42:16;95941.78;;;2.29;96.48
24280;BME280;12395;42.808;23.408;2023-01-24T05:44:41;95951.53;;;2.27;96.61
24280;BME280;12395;42.808;23.408;2023-01-24T05:47:07;95965.63;;;2.36;96.29
24280;BME280;12395;42.808;23.408;2023-01-24T05:49:33;95960.91;;;2.30;96.36
24280;BME280;12395;42.808;23.408;2023-01-24T05:52:02;95970.84;;;2.36;96.20
24280;BME280;12395;42.808;23.408;2023-01-24T05:54:31;95987.09;;;2.40;95.98
24280;BME280;12395;42.808;23.408;2023-01-24T05:56:59;95978.69;;;2.36;96.21
24280;BME280;12395;42.808;23.408;2023-01-24T05:59:25;95986.28;;;2.39;96.28
24280;BME280;12395;42.808;23.408;2023-01-24T06:01:50;95974.13;;;2.28;95.61
24280;BME280;12395;42.808;23.408;2023-01-24T06:04:15;95973.00;;;2.31;96.01
24280;BME280;12395;42.808;23.408;2023-01-24T06:06:41;95971.69;;;2.37;95.97
24280;BME280;12395;42.808;23.408;2023-01-24T06:09:09;95984.91;;;2.35;94.96
24280;BME280;12395;42.808;23.408;2023-01-24T06:11:35;95991.59;;;2.28;95.39
24280;BME280;12395;42.808;23.408;2023-01-24T06:14:00;95995.44;;;2.24;95.79
24280;BME280;12395;42.808;23.408;2023-01-24T06:16:26;95999.69;;;2.25;96.10
24280;BME280;12395;42.808;23.408;2023-01-24T06:18:53;96004.34;;;2.21;95.57
24280;BME280;12395;42.808;23.408;2023-01-24T06:23:59;95994.41;;;2.15;95.81
24280;BME280;12395;42.808;23.408;2023-01-24T06:26:25;95996.34;;;2.13;95.02
24280;BME280;12395;42.808;23.408;2023-01-24T06:28:50;96006.28;;;2.19;95.11
24280;BME280;12395;42.808;23.408;2023-01-24T06:38:47;96010.34;;;2.12;94.94
24280;BME280;12395;42.808;23.408;2023-01-24T06:41:15;96017.13;;;2.15;95.24
24280;BME280;12395;42.808;23.408;2023-01-24T06:43:44;96007.75;;;2.12;94.36
24280;BME280;12395;42.808;23.408;2023-01-24T06:46:11;96024.75;;;2.27;94.32
24280;BME280;12395;42.808;23.408;2023-01-24T06:48:37;96022.97;;;2.28;93.89
24280;BME280;12395;42.808;23.408;2023-01-24T06:51:02;96006.84;;;2.23;93.40
24280;BME280;12395;42.808;23.408;2023-01-24T06:53:28;96017.47;;;2.31;93.02
24280;BME280;12395;42.808;23.408;2023-01-24T06:55:53;96009.03;;;2.18;92.87
24280;BME280;12395;42.808;23.408;2023-01-24T06:58:18;96017.56;;;2.20;93.14
24280;BME280;12395;42.808;23.408;2023-01-24T07:00:44;96028.91;;;2.30;92.81
24280;BME280;12395;42.808;23.408;2023-01-24T07:03:09;96038.00;;;2.35;92.22
24280;BME280;12395;42.808;23.408;2023-01-24T07:05:36;96019.81;;;2.34;91.89
24280;BME280;12395;42.808;23.408;2023-01-24T07:08:02;96041.91;;;2.41;91.36
24280;BME280;12395;42.808;23.408;2023-01-24T07:10:28;96022.44;;;2.34;91.22
24280;BME280;12395;42.808;23.408;2023-01-24T07:12:54;96047.81;;;2.43;91.36
24280;BME280;12395;42.808;23.408;2023-01-24T07:15:20;96049.06;;;2.49;90.51
24280;BME280;12395;42.808;23.408;2023-01-24T07:17:46;96050.56;;;2.42;90.71
24280;BME280;12395;42.808;23.408;2023-01-24T07:20:12;96049.03;;;2.39;90.66
24280;BME280;12395;42.808;23.408;2023-01-24T07:22:39;96054.84;;;2.43;90.22
24280;BME280;12395;42.808;23.408;2023-01-24T07:25:11;96041.72;;;2.33;90.18
24280;BME280;12395;42.808;23.408;2023-01-24T07:27:37;96052.06;;;2.44;90.23
24280;BME280;12395;42.808;23.408;2023-01-24T07:30:04;96055.38;;;2.46;89.71
24280;BME280;12395;42.808;23.408;2023-01-24T07:32:29;96044.94;;;2.46;89.57
24280;BME280;12395;42.808;23.408;2023-01-24T07:34:55;96032.38;;;2.40;89.74
24280;BME280;12395;42.808;23.408;2023-01-24T07:37:20;96048.00;;;2.51;89.83
24280;BME280;12395;42.808;23.408;2023-01-24T07:39:48;96052.38;;;2.51;88.70
24280;BME280;12395;42.808;23.408;2023-01-24T07:42:13;96057.06;;;2.47;88.66
24280;BME280;12395;42.808;23.408;2023-01-24T07:44:39;96044.19;;;2.34;88.92
24280;BME280;12395;42.808;23.408;2023-01-24T07:47:04;96048.22;;;2.39;89.42
24280;BME280;12395;42.808;23.408;2023-01-24T07:49:29;96064.75;;;2.39;89.78
24280;BME280;12395;42.808;23.408;2023-01-24T07:51:55;96064.75;;;2.39;89.99
24280;BME280;12395;42.808;23.408;2023-01-24T07:54:20;96064.84;;;2.38;90.31
24280;BME280;12395;42.808;23.408;2023-01-24T07:56:46;96061.03;;;2.42;89.85
24280;BME280;12395;42.808;23.408;2023-01-24T07:59:11;96071.91;;;2.47;89.76
24280;BME280;12395;42.808;23.408;2023-01-24T08:01:37;96067.97;;;2.52;89.90
24280;BME280;12395;42.808;23.408;2023-01-24T08:04:02;96088.31;;;2.69;89.75
24280;BME280;12395;42.808;23.408;2023-01-24T08:06:28;96080.44;;;2.69;89.22
24280;BME280;12395;42.808;23.408;2023-01-24T08:08:53;96089.50;;;2.65;88.93
24280;BME280;12395;42.808;23.408;2023-01-24T08:11:19;96077.38;;;2.64;89.03
24280;BME280;12395;42.808;23.408;2023-01-24T08:13:44;96083.53;;;2.54;88.39
24280;BME280;12395;42.808;23.408;2023-01-24T08:16:10;96070.53;;;2.43;88.29
24280;BME280;12395;42.808;23.408;2023-01-24T08:18:39;96080.34;;;2.50;88.33
24280;BME280;12395;42.808;23.408;2023-01-24T08:21:05;96093.44;;;2.50;88.41
24280;BME280;12395;42.808;23.408;2023-01-24T08:23:31;96105.00;;;2.57;88.64
24280;BME280;12395;42.808;23.408;2023-01-24T08:25:57;96093.22;;;2.42;88.16
24280;BME280;12395;42.808;23.408;2023-01-24T08:28:23;96086.47;;;2.40;88.68
24280;BME280;12395;42.808;23.408;2023-01-24T08:30:49;96089.22;;;2.38;88.59
24280;BME280;12395;42.808;23.408;2023-01-24T08:33:14;96100.69;;;2.47;88.43
24280;BME280;12395;42.808;23.408;2023-01-24T08:35:44;96091.97;;;2.37;88.39
24280;BME280;12395;42.808;23.408;2023-01-24T08:38:11;96102.28;;;2.38;88.45
24280;BME280;12395;42.808;23.408;2023-01-24T08:40:37;96107.97;;;2.43;88.64
24280;BME280;12395;42.808;23.408;2023-01-24T08:43:02;96080.09;;;2.32;88.38
24280;BME280;12395;42.808;23.408;2023-01-24T08:45:27;96106.13;;;2.34;88.56
24280;BME280;12395;42.808;23.408;2023-01-24T08:47:53;96100.97;;;2.44;88.65
24280;BME280;12395;42.808;23.408;2023-01-24T08:50:19;96104.78;;;2.60;89.04
24280;BME280;12395;42.808;23.408;2023-01-24T08:52:46;96110.94;;;2.59;88.21
24280;BME280;12395;42.808;23.408;2023-01-24T08:55:12;96093.84;;;2.55;88.40
24280;BME280;12395;42.808;23.408;2023-01-24T08:57:37;96100.69;;;2.67;88.32
24280;BME280;12395;42.808;23.408;2023-01-24T09:00:03;96087.69;;;2.56;89.00
24280;BME280;12395;42.808;23.408;2023-01-24T09:02:29;96085.75;;;2.58;89.71
24280;BME280;12395;42.808;23.408;2023-01-24T09:04:57;96098.94;;;2.57;90.02
24280;BME280;12395;42.808;23.408;2023-01-24T09:07:22;96090.03;;;2.59;91.85
24280;BME280;12395;42.808;23.408;2023-01-24T09:09:49;96086.59;;;2.59;91.99
24280;BME280;12395;42.808;23.408;2023-01-24T09:12:14;96104.31;;;2.76;93.25
24280;BME280;12395;42.808;23.408;2023-01-24T09:14:39;96091.00;;;2.88;93.04
24280;BME280;12395;42.808;23.408;2023-01-24T09:17:05;96088.38;;;2.88;91.92
24280;BME280;12395;42.808;23.408;2023-01-24T09:19:31;96092.47;;;2.81;91.08
24280;BME280;12395;42.808;23.408;2023-01-24T09:21:56;96083.47;;;2.65;91.91
24280;BME280;12395;42.808;23.408;2023-01-24T09:24:22;96087.06;;;2.73;92.88
24280;BME280;12395;42.808;23.408;2023-01-24T09:26:48;96092.13;;;2.65;92.50
24280;BME280;12395;42.808;23.408;2023-01-24T09:29:14;96103.47;;;2.75;92.70
24280;BME280;12395;42.808;23.408;2023-01-24T09:31:39;96088.69;;;2.65;92.27
24280;BME280;12395;42.808;23.408;2023-01-24T09:34:05;96101.81;;;2.74;93.59
24280;BME280;12395;42.808;23.408;2023-01-24T09:36:30;96102.94;;;2.81;92.00
24280;BME280;12395;42.808;23.408;2023-01-24T09:38:56;96107.41;;;2.90;90.99
24280;BME280;12395;42.808;23.408;2023-01-24T09:47:46;96095.78;;;2.83;88.95
24280;BME280;12395;42.808;23.408;2023-01-24T09:50:27;96090.16;;;2.88;89.37
24280;BME280;12395;42.808;23.408;2023-01-24T09:52:57;96090.63;;;3.02;89.10
24280;BME280;12395;42.808;23.408;2023-01-24T09:55:41;96081.94;;;3.02;87.39
24280;BME280;12395;42.808;23.408;2023-01-24T10:00:45;96081.69;;;3.05;85.88
24280;BME280;12395;42.808;23.408;2023-01-24T10:03:19;96087.31;;;3.00;85.51
24280;BME280;12395;42.808;23.408;2023-01-24T10:05:53;96084.97;;;2.97;85.54
24280;BME280;12395;42.808;23.408;2023-01-24T10:08:27;96092.56;;;3.00;85.77
24280;BME280;12395;42.808;23.408;2023-01-24T10:11:14;96089.50;;;2.95;85.35
24280;BME280;12395;42.808;23.408;2023-01-24T10:19:46;96080.72;;;3.06;85.65
24280;BME280;12395;42.808;23.408;2023-01-24T10:30:56;96081.53;;;3.56;82.19
24280;BME280;12395;42.808;23.408;2023-01-24T10:33:27;96071.47;;;3.61;80.35
24280;BME280;12395;42.808;23.408;2023-01-24T10:35:57;96071.88;;;3.66;78.81
24280;BME280;12395;42.808;23.408;2023-01-24T10:38:24;96060.72;;;3.64;79.96
24280;BME280;12395;42.808;23.408;2023-01-24T10:40:55;96071.63;;;3.98;79.37
24280;BME280;12395;42.808;23.408;2023-01-24T10:43:27;96061.69;;;4.01;77.22
24280;BME280;12395;42.808;23.408;2023-01-24T10:51:17;96068.84;;;4.09;76.76
24280;BME280;12395;42.808;23.408;2023-01-24T10:53:43;96060.72;;;4.02;76.45
24280;BME280;12395;42.808;23.408;2023-01-24T10:56:09;96061.56;;;3.93;76.16
24280;BME280;12395;42.808;23.408;2023-01-24T10:58:35;96057.56;;;3.89;76.53
24280;BME280;12395;42.808;23.408;2023-01-24T11:01:18;96048.03;;;3.98;76.30
24280;BME280;12395;42.808;23.408;2023-01-24T11:03:47;96058.66;;;3.96;76.57
24280;BME280;12395;42.808;23.408;2023-01-24T11:06:39;96049.81;;;3.97;77.06
24280;BME280;12395;42.808;23.408;2023-01-24T11:09:12;96060.59;;;3.94;75.15
24280;BME280;12395;42.808;23.408;2023-01-24T11:11:43;96059.06;;;3.82;76.76
24280;BME280;12395;42.808;23.408;2023-01-24T11:14:13;96038.09;;;3.91;76.98
24280;BME280;12395;42.808;23.408;2023-01-24T11:16:46;96048.84;;;3.98;76.79
24280;BME280;12395;42.808;23.408;2023-01-24T11:21:53;96046.19;;;4.27;76.24
24280;BME280;12395;42.808;23.408;2023-01-24T11:24:19;96022.84;;;4.24;75.47
24280;BME280;12395;42.808;23.408;2023-01-24T11:29:26;96024.63;;;4.42;75.59
24280;BME280;12395;42.808;23.408;2023-01-24T11:31:55;96032.53;;;4.69;74.37
24280;BME280;12395;42.808;23.408;2023-01-24T11:42:34;96034.31;;;5.06;73.51
24280;BME280;12395;42.808;23.408;2023-01-24T11:45:14;96034.84;;;5.09;71.10
24280;BME280;12395;42.808;23.408;2023-01-24T11:47:54;96036.28;;;4.67;71.69
24280;BME280;12395;42.808;23.408;2023-01-24T11:50:42;96034.72;;;4.37;73.34
24280;BME280;12395;42.808;23.408;2023-01-24T11:58:57;96039.16;;;4.18;75.31
24280;BME280;12395;42.808;23.408;2023-01-24T12:09:35;96024.31;;;3.61;78.11
24280;BME280;12395;42.808;23.408;2023-01-24T12:17:18;96022.66;;;3.50;79.62
24280;BME280;12395;42.808;23.408;2023-01-24T12:22:35;96032.56;;;3.47;78.77
24280;BME280;12395;42.808;23.408;2023-01-24T12:25:07;96033.41;;;3.47;79.46
24280;BME280;12395;42.808;23.408;2023-01-24T12:27:39;96013.53;;;3.45;79.24
24280;BME280;12395;42.808;23.408;2023-01-24T12:37:49;96035.88;;;3.49;77.46
24280;BME280;12395;42.808;23.408;2023-01-24T12:40:35;96022.09;;;3.47;78.20
24280;BME280;12395;42.808;23.408;2023-01-24T12:44:11;96028.69;;;3.51;77.31
24280;BME280;12395;42.808;23.408;2023-01-24T12:51:22;96022.94;;;3.38;77.89
24280;BME280;12395;42.808;23.408;2023-01-24T12:54:16;96014.63;;;3.42;78.02
24280;BME280;12395;42.808;23.408;2023-01-24T12:59:12;96016.16;;;3.35;76.96
24280;BME280;12395;42.808;23.408;2023-01-24T13:04:35;96032.56;;;3.37;77.46
24280;BME280;12395;42.808;23.408;2023-01-24T13:07:21;96039.03;;;3.43;78.05
24280;BME280;12395;42.808;23.408;2023-01-24T13:10:15;96040.84;;;3.52;77.12
24280;BME280;12395;42.808;23.408;2023-01-24T13:12:43;96032.72;;;3.45;78.36
24280;BME280;12395;42.808;23.408;2023-01-24T13:15:17;96037.81;;;3.47;77.58
24280;BME280;12395;42.808;23.408;2023-01-24T13:28:26;96026.66;;;2.86;80.84
24280;BME280;12395;42.808;23.408;2023-01-24T13:31:18;96023.59;;;2.71;82.66
24280;BME280;12395;42.808;23.408;2023-01-24T13:33:50;96020.38;;;2.58;83.23
24280;BME280;12395;42.808;23.408;2023-01-24T13:36:22;96022.81;;;2.50;84.11
24280;BME280;12395;42.808;23.408;2023-01-24T13:38:50;96022.09;;;2.48;85.51
24280;BME280;12395;42.808;23.408;2023-01-24T13:41:32;96011.63;;;2.48;86.31
24280;BME280;12395;42.808;23.408;2023-01-24T13:44:04;96017.44;;;2.52;85.63
24280;BME280;12395;42.808;23.408;2023-01-24T13:51:58;96046.13;;;2.63;83.99
24280;BME280;12395;42.808;23.408;2023-01-24T13:54:40;96035.09;;;2.59;83.95
24280;BME280;12395;42.808;23.408;2023-01-24T13:57:17;96029.75;;;2.61;82.80
24280;BME280;12395;42.808;23.408;2023-01-24T14:04:54;96039.63;;;2.57;82.52
24280;BME280;12395;42.808;23.408;2023-01-24T14:07:38;96038.16;;;2.64;82.13
24280;BME280;12395;42.808;23.408;2023-01-24T14:10:06;96043.91;;;2.58;81.78
24280;BME280;12395;42.808;23.408;2023-01-24T14:12:37;96044.00;;;2.47;82.61
24280;BME280;12395;42.808;23.408;2023-01-24T14:20:44;96040.84;;;2.53;81.77
24280;BME280;12395;42.808;23.408;2023-01-24T14:23:30;96048.25;;;2.48;82.11
24280;BME280;12395;42.808;23.408;2023-01-24T14:25:57;96042.06;;;2.49;81.99
24280;BME280;12395;42.808;23.408;2023-01-24T14:28:31;96058.00;;;2.46;82.07
24280;BME280;12395;42.808;23.408;2023-01-24T14:31:02;96040.50;;;2.37;82.11
24280;BME280;12395;42.808;23.408;2023-01-24T14:33:34;96040.22;;;2.40;82.20
24280;BME280;12395;42.808;23.408;2023-01-24T14:36:20;96041.06;;;2.41;81.56
24280;BME280;12395;42.808;23.408;2023-01-24T14:38:47;96046.03;;;2.44;82.06
24280;BME280;12395;42.808;23.408;2023-01-24T14:41:22;96052.47;;;2.40;81.56
24280;BME280;12395;42.808;23.408;2023-01-24T14:43:48;96055.03;;;2.30;82.03
24280;BME280;12395;42.808;23.408;2023-01-24T14:46:24;96052.34;;;2.20;81.83
24280;BME280;12395;42.808;23.408;2023-01-24T14:48:50;96066.03;;;2.24;82.01
24280;BME280;12395;42.808;23.408;2023-01-24T14:51:18;96059.97;;;2.23;82.38
24280;BME280;12395;42.808;23.408;2023-01-24T14:53:52;96063.50;;;2.22;81.78
24280;BME280;12395;42.808;23.408;2023-01-24T14:56:18;96061.56;;;2.15;81.75
24280;BME280;12395;42.808;23.408;2023-01-24T14:58:44;96053.25;;;2.10;81.69
24280;BME280;12395;42.808;23.408;2023-01-24T15:01:31;96055.63;;;2.13;81.33
24280;BME280;12395;42.808;23.408;2023-01-24T15:03:58;96050.78;;;2.08;81.78
24280;BME280;12395;42.808;23.408;2023-01-24T15:06:25;96058.75;;;2.07;81.67
24280;BME280;12395;42.808;23.408;2023-01-24T15:08:56;96071.56;;;2.10;81.75
24280;BME280;12395;42.808;23.408;2023-01-24T15:11:26;96052.81;;;2.05;82.25
24280;BME280;12395;42.808;23.408;2023-01-24T15:13:58;96060.06;;;2.01;82.62